Time;durP1;ratioP1;P1;durP2;ratioP2;P2;SDS_P1;SDS_P2;PMS_P1;PMS_P2;Temp;Humidity;BMP_temperature;BMP_pressure;BME280_temperature;BME280_humidity;BME280_pressure;Samples;Min_cycle;Max_cycle;Signal;HPM_P1;HPM_P2
2021/12/07 00:00:27;;;;;;;;;;;2.30;99.90;;;;;;4997338;28;20070;-80
2021/12/07 00:02:54;;;;;;;19.98;10.50;;;2.30;99.90;;;;;;5001725;28;19922;-80
2021/12/07 00:05:20;;;;;;;23.85;10.80;;;2.20;99.90;;;;;;5008383;28;20072;-80
2021/12/07 00:07:46;;;;;;;20.25;10.25;;;2.20;99.90;;;;;;5009302;28;20487;-80
2021/12/07 00:10:14;;;;;;;24.55;10.63;;;2.20;99.90;;;;;;4960494;28;20054;-81
2021/12/07 00:12:43;;;;;;;24.50;10.60;;;2.10;99.90;;;;;;5008383;28;20084;-81
2021/12/07 00:15:11;;;;;;;23.10;11.38;;;2.10;99.90;;;;;;5003529;28;20046;-80
2021/12/07 00:17:37;;;;;;;19.98;10.27;;;2.10;99.90;;;;;;4992332;28;20106;-81
2021/12/07 00:20:13;;;;;;;20.67;10.52;;;2.10;99.90;;;;;;4992489;28;20061;-81
2021/12/07 00:22:41;;;;;;;24.20;11.98;;;2.00;99.90;;;;;;4991011;28;20053;-81
2021/12/07 00:25:08;;;;;;;21.17;9.93;;;2.00;99.90;;;;;;4989001;28;20046;-80
2021/12/07 00:27:34;;;;;;;21.23;10.15;;;1.90;99.90;;;;;;4972475;28;20116;-80
2021/12/07 00:30:00;;;;;;;21.40;10.15;;;2.10;99.90;;;;;;4988695;28;20487;-80
2021/12/07 00:32:31;;;;;;;25.10;11.25;;;1.80;99.90;;;;;;4987523;28;20058;-81
2021/12/07 00:37:30;;;;;;;20.73;9.65;;;1.70;99.90;;;;;;5008476;28;20461;-80
2021/12/07 00:39:56;;;;;;;24.38;10.75;;;1.60;99.90;;;;;;5000216;28;20065;-81
2021/12/07 00:42:23;;;;;;;20.33;10.20;;;2.00;99.90;;;;;;4991866;28;20050;-80
2021/12/07 00:44:49;;;;;;;22.10;10.82;;;1.50;99.90;;;;;;4976443;28;20081;-81
2021/12/07 00:47:15;;;;;;;;;;;1.40;99.90;;;;;;4991344;28;20399;-80
2021/12/07 00:49:41;;;;;;;21.98;10.48;;;1.40;99.90;;;;;;4960181;28;20061;-80
2021/12/07 00:52:08;;;;;;;20.60;10.13;;;1.70;99.90;;;;;;4993000;28;20427;-81
2021/12/07 00:54:33;;;;;;;;;;;1.50;99.90;;;;;;4975976;28;20121;-81
2021/12/07 00:57:01;;;;;;;23.63;11.05;;;1.40;99.90;;;;;;5011484;28;19929;-81
2021/12/07 00:59:28;;;;;;;27.05;10.75;;;1.40;99.90;;;;;;4993468;28;20058;-81
2021/12/07 01:01:53;;;;;;;;;;;1.40;99.90;;;;;;4974846;28;20046;-81
2021/12/07 01:04:19;;;;;;;25.52;11.20;;;1.40;99.90;;;;;;4979570;28;20341;-80
2021/12/07 01:25:29;;;;;;;28.42;11.73;;;2.00;99.90;;;;;;5011398;28;20054;-80
2021/12/07 01:27:59;;;;;;;22.13;10.77;;;1.30;99.90;;;;;;5011774;28;20449;-81
2021/12/07 01:31:05;;;;;;;23.08;11.20;;;1.30;99.90;;;;;;5004350;28;20788;-80
2021/12/07 01:59:58;;;;;;;22.42;10.57;;;1.10;99.90;;;;;;5010994;28;20093;-81
2021/12/07 02:02:27;;;;;;;24.85;10.95;;;1.40;99.90;;;;;;4990559;28;20090;-80
2021/12/07 02:04:54;;;;;;;25.38;11.98;;;1.10;99.90;;;;;;4991578;28;20666;-81
2021/12/07 02:07:20;;;;;;;24.02;11.43;;;1.10;99.90;;;;;;4959502;28;20076;-80
2021/12/07 02:09:51;;;;;;;23.88;11.55;;;1.10;99.90;;;;;;4991141;28;20269;-81
2021/12/07 02:12:17;;;;;;;23.85;11.77;;;1.10;99.90;;;;;;4994655;28;20042;-81
2021/12/07 02:14:43;;;;;;;25.95;11.60;;;1.50;99.90;;;;;;4994322;28;20073;-81
2021/12/07 02:17:11;;;;;;;;;;;1.20;99.90;;;;;;4976509;28;20053;-81
2021/12/07 02:19:36;;;;;;;;;;;1.10;99.90;;;;;;4994704;28;20028;-81
2021/12/07 02:22:03;;;;;;;24.95;10.63;;;1.20;99.90;;;;;;5011065;28;20379;-81
2021/12/07 02:24:29;;;;;;;24.35;10.75;;;1.20;99.90;;;;;;4977623;28;20491;-80
2021/12/07 02:26:56;;;;;;;23.63;11.40;;;1.20;99.90;;;;;;5010448;28;20069;-81
2021/12/07 02:29:22;;;;;;;23.38;11.80;;;1.20;99.90;;;;;;5010862;28;20050;-82
2021/12/07 02:31:49;;;;;;;25.90;12.82;;;1.20;99.90;;;;;;5008437;28;20041;-82
2021/12/07 02:34:15;;;;;;;26.58;12.73;;;1.20;99.90;;;;;;5010469;28;20081;-81
2021/12/07 02:36:42;;;;;;;26.67;12.85;;;1.40;99.90;;;;;;4999326;28;20069;-81
2021/12/07 02:39:09;;;;;;;26.50;12.00;;;1.20;99.90;;;;;;4990512;28;20046;-81
2021/12/07 02:41:36;;;;;;;28.90;12.95;;;1.10;99.90;;;;;;4973783;28;20054;-81
2021/12/07 02:44:06;;;;;;;27.00;12.50;;;1.10;99.90;;;;;;4998555;28;20046;-81
2021/12/07 02:46:32;;;;;;;25.90;12.68;;;1.20;99.90;;;;;;5007871;28;20472;-80
2021/12/07 02:48:58;;;;;;;;;;;1.60;99.90;;;;;;5010725;28;20103;-82
2021/12/07 02:51:24;;;;;;;22.65;11.73;;;1.20;99.90;;;;;;4994125;28;20568;-81
2021/12/07 02:53:49;;;;;;;23.95;12.13;;;1.20;99.90;;;;;;4961346;28;20053;-81
2021/12/07 02:56:15;;;;;;;25.35;11.88;;;1.60;99.90;;;;;;4993736;28;20076;-81
2021/12/07 02:58:43;;;;;;;28.13;12.70;;;1.10;99.90;;;;;;4976552;28;20064;-81
2021/12/07 03:01:16;;;;;;;26.50;12.55;;;1.10;99.90;;;;;;5009121;28;20100;-81
2021/12/07 03:03:55;;;;;;;26.90;13.23;;;1.20;99.90;;;;;;5008808;28;20100;-82
2021/12/07 03:27:58;;;;;;;29.35;13.30;;;1.10;99.90;;;;;;5009612;28;20049;-81
2021/12/07 03:30:25;;;;;;;28.88;13.15;;;1.10;99.90;;;;;;4992261;28;20822;-82
2021/12/07 03:32:51;;;;;;;29.17;14.18;;;1.10;99.90;;;;;;5008025;28;20064;-81
2021/12/07 03:35:17;;;;;;;29.35;14.73;;;1.10;99.90;;;;;;4993016;28;20050;-80
2021/12/07 03:37:43;;;;;;;28.98;13.75;;;1.10;99.90;;;;;;5005629;28;20560;-81
2021/12/07 03:40:12;;;;;;;30.65;14.80;;;1.20;99.90;;;;;;4989357;28;20050;-80
2021/12/07 03:42:38;;;;;;;29.80;14.50;;;1.20;99.90;;;;;;4988835;28;20068;-81
2021/12/07 03:45:08;;;;;;;27.52;13.95;;;1.20;99.90;;;;;;4992124;28;20395;-81
2021/12/07 03:47:33;;;;;;;29.38;13.55;;;1.20;99.90;;;;;;5008183;28;20569;-80
2021/12/07 03:49:59;;;;;;;29.38;13.18;;;1.20;99.90;;;;;;5009254;28;20057;-81
2021/12/07 03:52:25;;;;;;;28.65;14.55;;;1.20;99.90;;;;;;5009390;28;20057;-81
2021/12/07 03:54:51;;;;;;;31.08;14.75;;;1.20;99.90;;;;;;5008616;28;20510;-80
2021/12/07 03:57:16;;;;;;;32.33;14.75;;;1.20;99.90;;;;;;4992612;28;20084;-81
2021/12/07 03:59:42;;;;;;;32.97;14.73;;;1.20;99.90;;;;;;4992815;28;20128;-81
2021/12/07 04:02:08;;;;;;;30.50;14.13;;;1.20;99.90;;;;;;4991189;28;20042;-81
2021/12/07 04:04:35;;;;;;;30.80;14.05;;;1.70;99.90;;;;;;5008857;28;20133;-80
2021/12/07 04:07:01;;;;;;;30.67;14.63;;;1.20;99.90;;;;;;5009149;28;20053;-81
2021/12/07 04:09:27;;;;;;;31.05;13.93;;;1.10;99.90;;;;;;5009196;28;20104;-81
2021/12/07 04:11:54;;;;;;;35.90;15.88;;;1.30;99.90;;;;;;5007574;28;20054;-81
2021/12/07 04:14:20;;;;;;;32.45;14.80;;;1.30;99.90;;;;;;5010696;28;20210;-81
2021/12/07 04:16:46;;;;;;;35.42;15.70;;;1.10;99.90;;;;;;4993654;28;20104;-81
2021/12/07 04:19:11;;;;;;;36.58;15.93;;;1.00;99.90;;;;;;5013215;28;20438;-81
2021/12/07 04:21:37;;;;;;;34.17;14.80;;;0.90;99.90;;;;;;4996298;28;20110;-80
2021/12/07 04:24:03;;;;;;;34.80;14.57;;;0.90;99.90;;;;;;5013099;28;20049;-81
2021/12/07 04:26:31;;;;;;;35.88;15.30;;;0.90;99.90;;;;;;5012807;28;20042;-81
2021/12/07 04:28:57;;;;;;;33.03;14.23;;;0.80;99.90;;;;;;4996555;28;20678;-81
2021/12/07 04:31:23;;;;;;;33.15;14.82;;;1.40;99.90;;;;;;5011113;28;20057;-81
2021/12/07 04:33:48;;;;;;;36.88;15.63;;;0.80;99.90;;;;;;4977209;28;20506;-81
2021/12/07 04:36:14;;;;;;;39.63;16.55;;;1.60;99.90;;;;;;4982663;28;20664;-81
2021/12/07 04:38:41;;;;;;;39.50;17.17;;;0.70;99.90;;;;;;4996045;28;20087;-81
2021/12/07 04:41:07;;;;;;;35.55;15.38;;;0.70;99.90;;;;;;4996308;28;20056;-81
2021/12/07 04:43:36;;;;;;;38.78;16.13;;;0.70;99.90;;;;;;4999581;28;20125;-81
2021/12/07 04:46:16;;;;;;;43.60;17.55;;;1.40;99.90;;;;;;4991677;28;20101;-81
2021/12/07 04:59:27;;;;;;;44.33;16.63;;;0.60;99.90;;;;;;4998628;28;20080;-80
2021/12/07 05:01:53;;;;;;;38.13;16.08;;;0.50;99.90;;;;;;4992809;28;20054;-80
2021/12/07 05:04:24;;;;;;;40.97;16.25;;;1.30;99.90;;;;;;4998755;28;20039;-81
2021/12/07 05:06:54;;;;;;;43.33;16.67;;;1.20;99.90;;;;;;4992248;28;20058;-81
2021/12/07 05:09:37;;;;;;;36.50;15.52;;;0.50;99.90;;;;;;4992616;28;20501;-80
2021/12/07 05:14:37;;;;;;;40.67;16.23;;;0.50;99.90;;;;;;4992640;28;20060;-81
2021/12/07 05:17:46;;;;;;;41.55;15.48;;;0.40;99.90;;;;;;4973516;28;20050;-80
2021/12/07 05:34:34;;;;;;;43.60;15.70;;;0.40;99.90;;;;;;4990959;28;20097;-80
2021/12/07 05:39:18;;;;;;;37.75;15.10;;;0.60;99.90;;;;;;4992372;28;20046;-80
2021/12/07 05:41:44;;;;;;;38.28;15.23;;;0.50;99.90;;;;;;4991219;28;20069;-79
2021/12/07 05:44:09;;;;;;;36.45;14.10;;;0.40;99.90;;;;;;4992098;28;20133;-80
2021/12/07 05:46:35;;;;;;;33.38;14.10;;;0.40;99.90;;;;;;4998477;28;20495;-80
2021/12/07 05:49:01;;;;;;;39.88;14.75;;;0.80;99.90;;;;;;5007913;28;20061;-80
2021/12/07 05:51:26;;;;;;;41.03;14.02;;;0.40;99.90;;;;;;4992067;28;20053;-80
2021/12/07 05:53:52;;;;;;;33.33;14.07;;;0.50;99.90;;;;;;4989243;28;20053;-82
2021/12/07 05:56:18;;;;;;;40.05;14.10;;;0.40;99.90;;;;;;4994854;28;20073;-80
2021/12/07 05:58:44;;;;;;;40.15;13.18;;;0.30;99.90;;;;;;4994545;28;20132;-80
2021/12/07 06:01:09;;;;;;;36.15;13.30;;;0.30;99.90;;;;;;4993514;28;20447;-81
2021/12/07 06:03:35;;;;;;;39.35;14.73;;;0.30;99.90;;;;;;5007785;28;20142;-80
2021/12/07 06:06:03;;;;;;;36.78;14.07;;;0.30;99.90;;;;;;4974577;28;20054;-80
2021/12/07 06:08:30;;;;;;;32.33;13.02;;;0.30;99.90;;;;;;4975338;28;20479;-80
2021/12/07 06:10:55;;;;;;;38.72;13.38;;;0.30;99.90;;;;;;4975773;28;20483;-80
2021/12/07 06:13:23;;;;;;;38.13;14.55;;;0.20;99.90;;;;;;5007336;28;20092;-80
2021/12/07 06:15:48;;;;;;;39.13;13.85;;;0.20;99.90;;;;;;4993220;28;20034;-79
2021/12/07 06:18:14;;;;;;;36.10;13.10;;;0.20;99.90;;;;;;5009754;28;20042;-80
2021/12/07 06:20:41;;;;;;;35.78;13.75;;;0.20;99.90;;;;;;4994800;28;20050;-80
2021/12/07 06:23:09;;;;;;;37.15;13.52;;;0.30;99.90;;;;;;4993158;28;20232;-80
2021/12/07 06:25:35;;;;;;;34.42;12.70;;;0.50;99.90;;;;;;4974469;28;20046;-80
2021/12/07 06:28:01;;;;;;;35.88;13.05;;;0.20;99.90;;;;;;4974493;28;20101;-80
2021/12/07 06:30:27;;;;;;;32.35;12.88;;;0.30;99.90;;;;;;4990158;28;20479;-80
2021/12/07 06:32:53;;;;;;;30.67;12.13;;;0.30;99.90;;;;;;4975085;28;20050;-80
2021/12/07 06:35:18;;;;;;;30.65;12.30;;;0.30;99.90;;;;;;4994477;28;20079;-80
2021/12/07 06:37:44;;;;;;;37.83;12.63;;;0.30;99.90;;;;;;5010329;28;20483;-80
2021/12/07 06:40:12;;;;;;;31.67;12.23;;;0.30;99.90;;;;;;5009800;28;20069;-80
2021/12/07 06:42:38;;;;;;;36.33;12.57;;;0.40;99.90;;;;;;4994305;28;20432;-80
2021/12/07 06:45:13;;;;;;;31.23;11.77;;;0.40;99.90;;;;;;5003525;28;20480;-80
2021/12/07 06:47:39;;;;;;;37.13;13.00;;;0.40;99.90;;;;;;4989842;28;20046;-80
2021/12/07 06:50:08;;;;;;;32.25;12.85;;;0.40;99.90;;;;;;4990438;28;20120;-80
2021/12/07 06:52:34;;;;;;;35.80;13.02;;;0.40;99.90;;;;;;5010372;28;20096;-79
2021/12/07 06:55:00;;;;;;;38.10;12.95;;;0.40;99.90;;;;;;4993393;28;20061;-80
2021/12/07 06:57:27;;;;;;;34.80;12.18;;;0.40;99.90;;;;;;4993470;28;20495;-80
2021/12/07 06:59:53;;;;;;;36.60;13.77;;;0.60;99.90;;;;;;4975722;28;20088;-79
2021/12/07 07:02:19;;;;;;;38.45;13.25;;;0.50;99.90;;;;;;5003813;28;20438;-80
2021/12/07 07:04:45;;;;;;;;;;;0.40;99.90;;;;;;4991006;28;20046;-80
2021/12/07 07:07:11;;;;;;;32.35;11.93;;;0.90;99.90;;;;;;4973942;28;19980;-81
2021/12/07 07:09:37;;;;;;;30.08;12.35;;;0.50;99.90;;;;;;4974663;28;20479;-81
2021/12/07 07:12:03;;;;;;;32.95;12.95;;;0.30;99.90;;;;;;4980233;28;20058;-81
2021/12/07 07:14:29;;;;;;;31.98;11.48;;;0.30;99.90;;;;;;4990159;28;20039;-80
2021/12/07 07:16:55;;;;;;;35.83;12.40;;;1.20;99.90;;;;;;4987891;28;20058;-80
2021/12/07 07:19:20;;;;;;;36.95;11.73;;;0.30;99.90;;;;;;4990430;28;20141;-81
2021/12/07 07:21:46;;;;;;;34.67;12.52;;;0.70;99.90;;;;;;4983212;28;20058;-81
2021/12/07 07:24:12;;;;;;;39.70;13.60;;;0.50;99.90;;;;;;4995484;28;20061;-81
2021/12/07 07:26:37;;;;;;;40.92;14.23;;;1.40;99.90;;;;;;4957206;28;20605;-81
2021/12/07 07:29:03;;;;;;;33.45;12.90;;;0.40;99.90;;;;;;4991871;28;20076;-81
2021/12/07 07:31:29;;;;;;;31.20;12.63;;;0.20;99.90;;;;;;4988100;28;20050;-81
2021/12/07 07:33:55;;;;;;;35.58;13.05;;;0.20;99.90;;;;;;4972776;28;20038;-80
2021/12/07 07:36:22;;;;;;;37.15;12.88;;;0.20;99.90;;;;;;4990193;28;20443;-82
2021/12/07 07:38:48;;;;;;;37.55;13.90;;;0.20;99.90;;;;;;4973743;28;20487;-82
2021/12/07 07:41:14;;;;;;;33.72;13.35;;;0.20;99.90;;;;;;4989298;28;20061;-81
2021/12/07 07:43:40;;;;;;;40.75;13.25;;;0.20;99.90;;;;;;4973667;28;20050;-81
2021/12/07 07:46:05;;;;;;;36.03;13.25;;;0.20;99.90;;;;;;4988288;28;20557;-82
2021/12/07 07:48:31;;;;;;;31.80;12.35;;;0.30;99.90;;;;;;4972084;28;20503;-81
2021/12/07 07:50:57;;;;;;;35.70;13.63;;;0.20;99.90;;;;;;4973572;28;20087;-81
2021/12/07 07:53:23;;;;;;;36.85;13.77;;;0.10;99.90;;;;;;4993354;28;20054;-81
2021/12/07 07:55:50;;;;;;;;;;;0.10;99.90;;;;;;5009817;28;20042;-81
2021/12/07 07:58:17;;;;;;;34.40;12.93;;;0.20;99.90;;;;;;5008187;28;19948;-81
2021/12/07 08:00:44;;;;;;;39.17;12.55;;;0.20;99.90;;;;;;4972582;28;20050;-81
2021/12/07 08:03:10;;;;;;;33.30;12.48;;;0.20;99.90;;;;;;5005021;28;20050;-82
2021/12/07 08:05:35;;;;;;;35.15;12.65;;;0.30;99.90;;;;;;4992180;28;20061;-81
2021/12/07 08:08:03;;;;;;;38.20;12.63;;;0.40;99.90;;;;;;4992592;28;20057;-81
2021/12/07 08:10:29;;;;;;;30.20;12.07;;;0.30;99.90;;;;;;4992322;28;20042;-81
2021/12/07 08:12:57;;;;;;;39.65;12.68;;;0.30;99.90;;;;;;5008688;28;20054;-81
2021/12/07 08:15:28;;;;;;;36.75;13.65;;;0.40;99.90;;;;;;5008238;28;20058;-81
2021/12/07 08:17:54;;;;;;;34.10;12.13;;;1.00;99.90;;;;;;5008321;28;20088;-81
2021/12/07 08:20:20;;;;;;;;;;;0.40;99.90;;;;;;5004093;28;20554;-81
2021/12/07 08:22:47;;;;;;;33.25;11.10;;;0.40;99.90;;;;;;4999474;28;19932;-82
2021/12/07 08:25:14;;;;;;;34.92;11.68;;;0.40;99.90;;;;;;4988656;28;20199;-82
2021/12/07 08:27:40;;;;;;;35.38;11.45;;;0.70;99.90;;;;;;4989557;28;20058;-81
2021/12/07 08:30:07;;;;;;;;;;;0.40;99.90;;;;;;4972760;28;20651;-82
2021/12/07 08:32:33;;;;;;;35.65;11.90;;;0.40;99.90;;;;;;4977667;28;19921;-81
2021/12/07 08:34:59;;;;;;;30.92;10.77;;;0.70;99.90;;;;;;5008227;28;20053;-81
2021/12/07 08:37:24;;;;;;;44.20;12.65;;;-0.20;99.90;;;;;;4984006;28;20042;-80
2021/12/07 08:39:50;;;;;;;37.70;12.43;;;0.50;99.90;;;;;;4990969;28;20046;-80
2021/12/07 08:42:17;;;;;;;39.88;13.02;;;0.50;99.90;;;;;;5003909;28;20045;-80
2021/12/07 08:44:43;;;;;;;34.53;12.00;;;1.00;99.90;;;;;;4988888;28;20046;-80
2021/12/07 08:47:09;;;;;;;34.55;11.63;;;0.60;99.90;;;;;;4989232;28;20042;-80
2021/12/07 08:49:34;;;;;;;39.53;11.82;;;1.30;99.90;;;;;;5007965;28;20042;-80
2021/12/07 08:52:00;;;;;;;41.05;12.70;;;0.70;99.90;;;;;;4970279;28;20100;-80
2021/12/07 08:59:36;;;;;;;40.42;13.00;;;0.70;99.90;;;;;;4991130;28;20123;-80
2021/12/07 09:00:01;;;;;;;37.65;13.73;;;0.80;99.90;;;;;;5007689;28;20449;-80
2021/12/07 09:02:27;;;;;;;42.40;15.55;;;0.50;99.90;;;;;;4993132;28;20537;-80
2021/12/07 09:04:54;;;;;;;48.40;16.80;;;0.80;99.90;;;;;;4978334;28;20128;-80
2021/12/07 09:07:20;;;;;;;52.72;17.10;;;0.90;99.90;;;;;;4993938;28;20046;-80
2021/12/07 09:09:46;;;;;;;50.63;15.50;;;0.90;99.90;;;;;;4994322;28;20042;-80
2021/12/07 09:12:13;;;;;;;;;;;1.00;99.90;;;;;;4984591;28;20582;-80
2021/12/07 09:14:42;;;;;;;42.40;14.27;;;1.30;99.90;;;;;;5005052;28;19933;-80
2021/12/07 09:17:10;;;;;;;36.63;14.27;;;1.00;99.90;;;;;;4992652;28;20089;-83
2021/12/07 09:19:36;;;;;;;40.42;13.07;;;1.10;99.90;;;;;;4994843;28;20111;-80
2021/12/07 09:22:02;;;;;;;41.50;12.48;;;1.10;99.90;;;;;;5011395;28;20057;-82
2021/12/07 09:24:28;;;;;;;38.75;12.25;;;1.10;99.90;;;;;;5011079;28;20406;-83
2021/12/07 09:28:44;;;;;;;40.28;12.23;;;1.20;99.90;;;;;;5081412;27;1973985;-78
2021/12/07 09:31:10;;;;;;;35.80;11.40;;;1.20;99.90;;;;;;5107435;28;20051;-80
2021/12/07 09:33:37;;;;;;;37.72;11.23;;;1.40;99.90;;;;;;5083304;28;20048;-79
2021/12/07 09:36:07;;;;;;;30.70;11.05;;;1.30;99.90;;;;;;5072313;28;20048;-80
2021/12/07 09:38:33;;;;;;;34.72;11.32;;;1.40;99.90;;;;;;5090765;28;20079;-79
2021/12/07 09:40:59;;;;;;;32.10;10.95;;;1.40;99.90;;;;;;5104693;28;20052;-79
2021/12/07 09:43:25;;;;;;;30.17;10.50;;;1.50;99.90;;;;;;5081355;28;20114;-78
2021/12/07 09:45:51;;;;;;;32.88;10.00;;;1.50;99.90;;;;;;5081841;28;20126;-79
2021/12/07 09:48:17;;;;;;;29.80;10.23;;;1.60;99.90;;;;;;5115775;28;20422;-80
2021/12/07 09:50:44;;;;;;;;;;;1.70;99.90;;;;;;5101522;28;20052;-79
2021/12/07 09:53:12;;;;;;;26.00;9.38;;;1.80;99.90;;;;;;5081668;28;20377;-79
2021/12/07 09:55:39;;;;;;;33.08;10.20;;;2.00;99.90;;;;;;5095873;28;20485;-79
2021/12/07 09:58:06;;;;;;;39.15;10.18;;;2.10;99.90;;;;;;5093216;28;20079;-79
2021/12/07 10:00:33;;;;;;;24.17;8.63;;;2.30;99.90;;;;;;5098040;28;20063;-80
2021/12/07 10:02:59;;;;;;;21.33;8.65;;;2.40;99.90;;;;;;5095124;28;20052;-80
2021/12/07 10:05:29;;;;;;;25.25;7.88;;;2.50;99.90;;;;;;5096433;28;20044;-80
2021/12/07 10:07:55;;;;;;;20.38;7.65;;;2.60;99.90;;;;;;5087521;28;20097;-80
2021/12/07 10:10:31;;;;;;;20.40;7.68;;;2.70;99.90;;;;;;5067274;28;20505;-80
2021/12/07 10:12:57;;;;;;;;;;;3.10;99.90;;;;;;5074464;28;20104;-80
2021/12/07 10:15:24;;;;;;;20.63;7.97;;;2.80;99.90;;;;;;5091450;28;19924;-82
2021/12/07 10:18:03;;;;;;;26.15;8.50;;;2.80;99.90;;;;;;5115057;28;20112;-81
2021/12/07 10:20:44;;;;;;;23.55;7.75;;;2.80;99.90;;;;;;5102514;28;20093;-80
2021/12/07 10:23:16;;;;;;;24.13;8.20;;;2.80;99.90;;;;;;5093615;28;20044;-81
2021/12/07 10:25:54;;;;;;;22.98;8.65;;;2.90;99.90;;;;;;5088895;28;20047;-80
2021/12/07 10:28:36;;;;;;;21.55;8.57;;;2.90;99.90;;;;;;5083346;28;20113;-80
2021/12/07 10:31:15;;;;;;;17.20;7.10;;;3.00;99.90;;;;;;5067044;28;20401;-80
2021/12/07 10:34:32;;;;;;;18.25;6.63;;;3.00;99.90;;;;;;5083560;28;20056;-80
2021/12/07 10:37:11;;;;;;;22.67;7.32;;;3.00;99.90;;;;;;5072800;28;20065;-80
2021/12/07 10:39:40;;;;;;;18.55;7.13;;;3.10;99.90;;;;;;5057292;28;20048;-80
2021/12/07 10:42:18;;;;;;;17.67;7.32;;;3.10;99.90;;;;;;5070586;28;20056;-80
2021/12/07 10:44:44;;;;;;;20.70;6.95;;;3.10;99.90;;;;;;5071048;28;20047;-80
2021/12/07 10:47:15;;;;;;;18.30;7.00;;;3.10;99.90;;;;;;5068203;28;20420;-80
2021/12/07 10:50:00;;;;;;;26.58;6.60;;;3.00;99.90;;;;;;5070802;28;20481;-80
2021/12/07 10:52:29;;;;;;;28.77;7.75;;;3.10;99.90;;;;;;5076370;28;20061;-80
2021/12/07 10:54:57;;;;;;;17.77;7.30;;;3.20;99.90;;;;;;5070607;28;20075;-80
2021/12/07 10:57:31;;;;;;;19.15;6.65;;;3.20;99.90;;;;;;5053367;28;20048;-80
2021/12/07 11:00:09;;;;;;;30.52;8.07;;;3.30;99.90;;;;;;5083391;28;20127;-80
2021/12/07 11:02:37;;;;;;;19.52;7.13;;;3.40;99.90;;;;;;5056253;28;20064;-80
2021/12/07 11:05:10;;;;;;;16.05;7.13;;;3.60;99.90;;;;;;5065323;28;20054;-80
2021/12/07 11:07:36;;;;;;;23.13;7.35;;;3.90;99.90;;;;;;5090172;28;20047;-80
2021/12/07 11:10:22;;;;;;;16.60;6.32;;;3.80;99.90;;;;;;5075994;28;20052;-81
2021/12/07 11:15:26;;;;;;;14.45;5.13;;;4.60;99.90;;;;;;5069146;28;20056;-81
2021/12/07 11:18:12;;;;;;;14.10;5.20;;;4.90;99.90;;;;;;5069374;28;20072;-81
2021/12/07 11:20:38;;;;;;;20.98;4.97;;;4.90;99.90;;;;;;5079690;28;20048;-80
2021/12/07 11:23:14;;;;;;;15.38;5.38;;;4.70;99.90;;;;;;5082873;28;20072;-79
2021/12/07 11:31:23;;;;;;;17.48;5.28;;;5.40;99.90;;;;;;5070411;28;20055;-79
2021/12/07 11:33:53;;;;;;;12.68;5.03;;;5.70;99.90;;;;;;5054878;28;20553;-79
2021/12/07 11:36:24;;;;;;;13.80;4.72;;;5.70;99.90;;;;;;5080329;28;20048;-79
2021/12/07 11:38:50;;;;;;;17.08;5.88;;;5.60;99.90;;;;;;5078611;28;20040;-79
2021/12/07 11:41:21;;;;;;;13.55;5.47;;;5.50;99.90;;;;;;5059587;28;20114;-79
2021/12/07 11:43:57;;;;;;;17.52;5.22;;;5.20;99.90;;;;;;5084106;28;20048;-80
2021/12/07 11:46:25;;;;;;;14.05;5.60;;;4.90;99.90;;;;;;5069513;28;20051;-80
2021/12/07 11:49:10;;;;;;;20.50;6.97;;;4.80;99.90;;;;;;5068695;28;20049;-80
2021/12/07 11:51:37;;;;;;;20.38;5.35;;;5.00;99.90;;;;;;5053900;28;20397;-80
2021/12/07 11:54:04;;;;;;;13.30;4.70;;;5.50;99.90;;;;;;5067325;28;20049;-81
2021/12/07 11:56:31;;;;;;;12.80;5.05;;;5.90;99.90;;;;;;5070497;28;20058;-81
2021/12/07 11:58:57;;;;;;;20.25;5.40;;;6.20;99.90;;;;;;5073555;28;20579;-80
2021/12/07 12:01:23;;;;;;;16.13;4.90;;;6.50;99.90;;;;;;5068244;28;20132;-80
2021/12/07 12:03:48;;;;;;;16.50;5.93;;;6.60;99.90;;;;;;5073656;28;20044;-81
2021/12/07 12:06:14;;;;;;;13.60;5.30;;;6.60;99.90;;;;;;5051459;28;20075;-80
2021/12/07 12:08:40;;;;;;;12.70;4.63;;;6.70;99.90;;;;;;5067565;28;20049;-81
2021/12/07 12:11:25;;;;;;;14.98;5.07;;;6.90;99.90;;;;;;5052341;28;20461;-81
2021/12/07 12:14:18;;;;;;;15.30;4.03;;;7.20;99.90;;;;;;5086626;28;20546;-80
2021/12/07 12:17:08;;;;;;;12.05;4.10;;;7.40;99.90;;;;;;5082803;28;20056;-80
2021/12/07 12:20:00;;;;;;;17.98;4.22;;;7.60;99.90;;;;;;5086003;28;20049;-80
2021/12/07 12:22:42;;;;;;;14.68;4.25;;;7.80;99.90;;;;;;5085173;28;20048;-81
2021/12/07 12:25:11;;;;;;;13.13;4.03;;;8.00;99.90;;;;;;5085233;28;20715;-81
2021/12/07 12:27:38;;;;;;;12.57;4.25;;;8.00;99.90;;;;;;5094163;28;20132;-81
2021/12/07 12:30:25;;;;;;;11.68;4.32;;;7.90;99.90;;;;;;5053523;28;20048;-81
2021/12/07 12:32:58;;;;;;;18.20;4.88;;;7.80;99.90;;;;;;5088784;28;20080;-80
2021/12/07 12:35:29;;;;;;;12.40;4.20;;;7.70;99.90;;;;;;5070728;28;20044;-81
2021/12/07 12:37:55;;;;;;;13.43;4.35;;;7.70;99.90;;;;;;5089183;28;20051;-81
2021/12/07 12:40:25;;;;;;;15.48;4.63;;;7.70;99.90;;;;;;5069928;28;20075;-80
2021/12/07 12:42:54;;;;;;;14.90;4.22;;;7.70;99.90;;;;;;5070108;28;20052;-80
2021/12/07 12:45:24;;;;;;;10.88;4.15;;;7.80;99.90;;;;;;5085988;28;20062;-80
2021/12/07 12:48:09;;;;;;;13.50;4.70;;;7.80;99.90;;;;;;5070951;28;20051;-84
2021/12/07 12:51:04;;;;;;;12.38;4.57;;;7.80;99.90;;;;;;5084008;28;20523;-80
2021/12/07 12:53:34;;;;;;;15.75;4.80;;;7.80;99.90;;;;;;5068736;28;20382;-80
2021/12/07 12:56:09;;;;;;;12.88;4.50;;;8.00;99.90;;;;;;5068852;28;20062;-81
2021/12/07 12:58:56;;;;;;;15.23;4.32;;;8.20;99.90;;;;;;5088283;28;20051;-79
2021/12/07 13:01:26;;;;;;;13.40;4.43;;;8.20;99.90;;;;;;5078762;28;20060;-79
2021/12/07 13:04:22;;;;;;;10.90;4.72;;;8.10;99.90;;;;;;5068264;28;20123;-79
2021/12/07 13:07:04;;;;;;;15.93;4.22;;;8.00;99.90;;;;;;5068524;28;20048;-79
2021/12/07 13:09:44;;;;;;;15.75;4.80;;;8.00;99.90;;;;;;5057937;28;20056;-79
2021/12/07 13:12:10;;;;;;;15.75;4.85;;;7.90;99.90;;;;;;5088642;28;20056;-80
2021/12/07 13:14:49;;;;;;;16.08;4.68;;;7.80;99.90;;;;;;5088133;28;20052;-79
2021/12/07 13:17:17;;;;;;;16.23;5.00;;;7.70;99.90;;;;;;5086229;28;20151;-79
2021/12/07 13:20:17;;;;;;;15.57;4.55;;;7.90;99.90;;;;;;5088281;28;20051;-79
2021/12/07 13:23:12;;;;;;;13.68;4.45;;;8.10;99.90;;;;;;5077058;28;20599;-79
2021/12/07 13:25:48;;;;;;;21.90;5.55;;;8.20;99.90;;;;;;5067499;28;20052;-79
2021/12/07 13:28:21;;;;;;;17.23;5.65;;;8.30;99.90;;;;;;5051234;28;20063;-79
2021/12/07 13:30:49;;;;;;;18.92;5.38;;;8.40;99.90;;;;;;5066868;28;20044;-79
2021/12/07 13:33:23;;;;;;;18.10;6.20;;;8.50;99.90;;;;;;5067822;28;20374;-79
2021/12/07 13:35:51;;;;;;;20.70;5.18;;;8.40;99.90;;;;;;5067961;28;20158;-80
2021/12/07 13:38:25;;;;;;;13.18;5.40;;;8.40;99.90;;;;;;5088586;28;20055;-79
2021/12/07 13:41:14;;;;;;;12.88;5.20;;;8.30;99.90;;;;;;5088020;28;20048;-79
2021/12/07 13:43:42;;;;;;;16.70;5.30;;;8.30;99.90;;;;;;5072262;28;20048;-80
2021/12/07 13:46:15;;;;;;;14.10;5.25;;;8.30;99.90;;;;;;5071408;28;20059;-79
2021/12/07 13:48:42;;;;;;;19.52;5.60;;;8.20;99.90;;;;;;5068866;28;20052;-79
2021/12/07 13:51:10;;;;;;;16.27;6.60;;;8.10;99.90;;;;;;5071901;28;20097;-80
2021/12/07 13:53:38;;;;;;;19.25;5.47;;;8.00;99.90;;;;;;5072492;28;20044;-79
2021/12/07 13:56:05;;;;;;;20.13;6.13;;;8.10;99.90;;;;;;5068192;28;20083;-79
2021/12/07 13:58:48;;;;;;;22.17;6.03;;;8.00;99.90;;;;;;5068755;28;20048;-79
2021/12/07 14:01:13;;;;;;;15.18;6.22;;;7.90;99.90;;;;;;5070223;28;20121;-79
2021/12/07 14:03:43;;;;;;;14.95;5.93;;;7.70;99.90;;;;;;5087047;28;20492;-79
2021/12/07 14:06:09;;;;;;;16.27;6.90;;;7.60;99.90;;;;;;5084343;28;20058;-79
2021/12/07 14:08:35;;;;;;;14.70;6.60;;;7.30;99.90;;;;;;5050765;28;20052;-79
2021/12/07 14:11:01;;;;;;;18.77;6.47;;;7.20;99.90;;;;;;5062510;28;20105;-79
2021/12/07 14:13:27;;;;;;;;;;;7.20;99.90;;;;;;5088076;28;20055;-79
2021/12/07 14:15:53;;;;;;;15.93;6.13;;;6.80;99.90;;;;;;5070465;28;19924;-79
2021/12/07 14:18:22;;;;;;;;;;;6.60;99.90;;;;;;5060330;28;20097;-80
2021/12/07 14:20:54;;;;;;;21.38;6.43;;;6.50;99.90;;;;;;5091755;28;20011;-79
2021/12/07 14:23:38;;;;;;;19.02;7.10;;;6.30;99.90;;;;;;5092283;28;20091;-79
2021/12/07 14:26:04;;;;;;;18.95;6.93;;;6.10;99.90;;;;;;5087294;28;20067;-84
2021/12/07 14:28:49;;;;;;;14.90;6.00;;;5.90;99.90;;;;;;5079923;28;20052;-81
2021/12/07 14:31:17;;;;;;;16.83;6.25;;;5.70;99.90;;;;;;5079663;28;20055;-79
2021/12/07 14:33:49;;;;;;;14.52;7.55;;;5.60;99.90;;;;;;5071098;28;20057;-80
2021/12/07 14:36:21;;;;;;;15.38;6.30;;;5.60;99.90;;;;;;5092919;28;20094;-80
2021/12/07 14:38:52;;;;;;;13.77;6.72;;;5.30;99.90;;;;;;5099879;28;20040;-81
2021/12/07 14:41:21;;;;;;;23.05;7.53;;;5.20;99.90;;;;;;5101066;28;20051;-79
2021/12/07 14:43:48;;;;;;;15.18;6.78;;;5.10;99.90;;;;;;5103060;28;20133;-79
2021/12/07 14:46:17;;;;;;;23.88;7.60;;;5.20;99.90;;;;;;5080149;28;20048;-79
2021/12/07 14:48:46;;;;;;;22.52;7.53;;;5.00;99.90;;;;;;5081969;28;20067;-79